Weather reports worldwide

Advertisment
Vejer De La Frontera, Spain (8457): temperature & dewpoint: 20.05.2019 02:00:00 - 26.05.2019 02:00:00 (CEST)Vejer De La Frontera, Spain (8457): wind speed & gusts: 20.05.2019 02:00:00 - 26.05.2019 02:00:00 (CEST)Vejer De La Frontera, Spain (8457): wind direction: 20.05.2019 02:00:00 - 26.05.2019 02:00:00 (CEST)Vejer De La Frontera, Spain (8457): precipitation: 20.05.2019 02:00:00 - 26.05.2019 02:00:00 (CEST)
Date & Time tt [°C] td [°C] ff [km/h] ff [kn] fx [km/h] fx [kn] dd rr [mm]
26.05.2019 02:00:00 - - - - - - - -
26.05.2019 01:00:00 17,0 14,0 11 6 26 14 E 0,0
26.05.2019 00:00:00 17,6 12,5 8 4 20 11 E 0,0
25.05.2019 23:00:00 18,4 11,4 8 4 18 10 E 0,0
25.05.2019 22:00:00 19,4 10,2 7 4 18 10 E 0,0
25.05.2019 21:00:00 21,5 10,0 10 5 21 12 E 0,0
25.05.2019 20:00:00 23,6 11,7 8 4 18 10 ESE -
25.05.2019 19:00:00 24,9 11,1 9 5 19 10 SSE 0,0
25.05.2019 18:00:00 25,5 12,0 9 5 23 12 SW 0,0
25.05.2019 17:00:00 26,4 12,8 12 6 24 13 W 0,0
25.05.2019 16:00:00 25,9 13,1 11 6 29 15 W 0,0
25.05.2019 15:00:00 25,7 11,4 4 2 20 11 ENE 0,0
25.05.2019 14:00:00 25,7 11,8 6 3 21 11 E -
25.05.2019 13:00:00 25,0 11,9 10 5 30 16 E 0,0
25.05.2019 12:00:00 23,7 12,3 9 5 27 15 E 0,0
25.05.2019 11:00:00 22,1 12,6 9 5 27 15 E 0,0
25.05.2019 10:00:00 19,6 12,8 12 6 25 14 E 0,0
25.05.2019 09:00:00 17,9 13,7 8 4 23 12 E 0,0
25.05.2019 08:00:00 16,6 13,7 8 5 26 14 E -
25.05.2019 07:00:00 16,2 13,5 11 6 22 12 E 0,0
25.05.2019 06:00:00 16,3 12,2 10 5 24 13 ESE 0,0
25.05.2019 05:00:00 16,0 10,3 11 6 24 13 SSE 0,0
25.05.2019 04:00:00 15,8 13,5 12 6 29 15 SE 0,0
25.05.2019 03:00:00 16,3 15,3 12 6 26 14 SE 0,0
25.05.2019 02:00:00 16,3 15,3 13 7 26 14 S -
25.05.2019 01:00:00 16,3 15,3 10 5 18 10 S 0,0
25.05.2019 00:00:00 16,4 15,3 8 4 14 8 S 0,0
24.05.2019 23:00:00 16,4 14,6 6 3 14 8 SSW 0,0
24.05.2019 22:00:00 16,8 14,4 9 5 23 12 WSW 0,0
24.05.2019 21:00:00 17,5 13,9 14 7 30 16 WSW 0,0
24.05.2019 20:00:00 19,6 13,6 19 10 35 19 WSW -
24.05.2019 19:00:00 20,5 12,7 20 11 38 21 WSW 0,0
24.05.2019 18:00:00 20,9 13,1 21 11 39 21 WSW 0,0
24.05.2019 17:00:00 21,4 13,6 21 12 42 23 WSW 0,0
24.05.2019 16:00:00 20,8 13,0 22 12 39 21 WSW 0,0
24.05.2019 15:00:00 20,1 12,6 23 12 41 22 WSW 0,0
24.05.2019 14:00:00 19,6 12,6 21 11 36 20 W -
24.05.2019 13:00:00 19,2 12,4 18 10 32 18 W 0,0
24.05.2019 12:00:00 19,4 12,8 16 9 28 15 W 0,0
24.05.2019 11:00:00 18,7 12,6 16 9 27 15 WSW 0,0
24.05.2019 10:00:00 18,1 12,7 8 4 17 9 W 0,0
24.05.2019 09:00:00 16,9 12,0 10 6 22 12 WNW 0,0
24.05.2019 08:00:00 17,8 12,2 5 3 16 8 NW -
24.05.2019 07:00:00 18,2 12,2 8 4 17 9 NW 0,0
24.05.2019 06:00:00 19,1 12,1 6 3 19 10 NW 0,0
24.05.2019 05:00:00 19,7 12,0 8 4 19 10 NNW 0,0
24.05.2019 04:00:00 20,1 12,3 8 4 16 9 WNW 0,0
24.05.2019 03:00:00 20,8 12,2 6 4 14 8 WNW 0,0
24.05.2019 02:00:00 19,8 11,8 3 1 8 4 N -
24.05.2019 01:00:00 20,7 11,9 1 1 10 6 N 0,0
24.05.2019 00:00:00 21,4 12,2 5 3 18 10 NW 0,0
23.05.2019 23:00:00 21,0 11,6 13 7 22 12 WNW 0,0
23.05.2019 22:00:00 20,8 12,7 16 8 23 12 W 0,0
23.05.2019 21:00:00 22,8 10,9 11 6 21 12 W 0,0
23.05.2019 20:00:00 25,3 10,3 13 7 22 12 W -
23.05.2019 19:00:00 27,5 10,6 15 8 26 14 W 0,0
23.05.2019 18:00:00 27,4 11,0 14 8 28 15 W 0,0
23.05.2019 17:00:00 27,0 9,3 16 9 26 14 WSW 0,0
23.05.2019 16:00:00 28,2 10,4 12 7 22 12 W 0,0
23.05.2019 15:00:00 29,4 8,4 7 4 23 13 ENE 0,0
23.05.2019 14:00:00 29,0 9,7 8 4 26 14 E -
23.05.2019 13:00:00 27,4 9,3 11 6 26 14 E 0,0
23.05.2019 12:00:00 25,7 9,9 10 5 23 13 ENE 0,0
23.05.2019 11:00:00 23,2 9,2 10 6 25 13 ENE 0,0
23.05.2019 10:00:00 21,6 9,2 9 5 19 10 ENE 0,0
23.05.2019 09:00:00 18,7 8,7 8 4 19 10 ENE 0,0
23.05.2019 08:00:00 17,2 8,7 10 5 18 10 ENE -
23.05.2019 07:00:00 16,5 9,2 9 5 20 11 ENE 0,0
23.05.2019 06:00:00 16,6 10,0 9 5 22 12 ENE 0,0
23.05.2019 05:00:00 16,2 10,8 11 6 23 12 ENE 0,0
23.05.2019 04:00:00 15,7 10,3 7 4 18 10 ENE 0,0
23.05.2019 03:00:00 16,6 10,4 9 5 19 10 ENE 0,0
23.05.2019 02:00:00 17,2 10,0 10 5 26 14 E -
23.05.2019 01:00:00 17,7 10,0 11 6 23 12 ENE 0,0
23.05.2019 00:00:00 17,7 9,3 10 5 22 12 E 0,0
22.05.2019 23:00:00 18,3 9,7 8 4 22 12 ENE 0,0
22.05.2019 22:00:00 19,5 9,9 6 3 16 8 ENE 0,0
22.05.2019 21:00:00 22,0 7,7 6 4 20 11 E 0,0
22.05.2019 20:00:00 24,6 8,5 7 4 26 14 E -
22.05.2019 19:00:00 25,5 8,9 10 6 27 15 E 0,0
22.05.2019 18:00:00 27,6 9,9 10 5 24 13 E 0,0
22.05.2019 17:00:00 28,4 9,7 9 5 25 13 E 0,0
22.05.2019 16:00:00 27,5 9,3 10 5 29 16 E 0,0
22.05.2019 15:00:00 27,3 11,8 11 6 29 16 SE 0,0
22.05.2019 14:00:00 26,3 11,2 11 6 29 15 E -
22.05.2019 13:00:00 24,6 11,6 12 6 32 17 E 0,0
22.05.2019 12:00:00 23,0 13,0 12 6 30 16 E 0,0
22.05.2019 11:00:00 21,4 13,4 11 6 25 14 E 0,0
22.05.2019 10:00:00 19,4 13,8 11 6 23 13 E 0,0
22.05.2019 09:00:00 17,1 13,3 11 6 25 14 E 0,0
22.05.2019 08:00:00 15,4 12,3 7 4 17 9 E -
22.05.2019 07:00:00 14,3 11,2 7 4 16 9 E 0,0
22.05.2019 06:00:00 15,3 11,4 8 4 17 9 E 0,0
22.05.2019 05:00:00 15,9 12,1 5 3 10 6 E 0,0
22.05.2019 04:00:00 15,1 13,5 6 4 9 5 E 0,0
22.05.2019 03:00:00 15,6 13,7 3 2 5 3 NNW 0,0
22.05.2019 02:00:00 15,8 13,7 2 1 8 4 NNW -
22.05.2019 01:00:00 17,0 13,6 4 2 17 9 NNW 0,0
22.05.2019 00:00:00 17,3 13,7 6 3 25 14 NW 0,0
21.05.2019 23:00:00 16,8 13,9 16 9 26 14 WNW 0,0
21.05.2019 22:00:00 17,2 13,4 15 8 24 13 W 0,0
21.05.2019 21:00:00 18,5 13,4 15 8 25 14 W 0,0
21.05.2019 20:00:00 21,3 11,6 16 9 32 18 W -
21.05.2019 19:00:00 22,0 9,8 18 10 33 18 W 0,0
21.05.2019 18:00:00 21,6 9,8 19 10 33 18 W 0,0
21.05.2019 17:00:00 22,2 10,3 17 9 35 19 W 0,0
21.05.2019 16:00:00 22,2 11,0 19 11 34 18 W 0,0
21.05.2019 15:00:00 21,7 11,7 19 10 34 18 W 0,0
21.05.2019 14:00:00 21,5 11,8 19 10 28 15 WSW -
21.05.2019 13:00:00 22,3 11,3 14 7 26 14 W 0,0
21.05.2019 12:00:00 21,7 11,1 13 7 42 23 W 0,0
21.05.2019 11:00:00 19,8 12,3 8 5 17 9 WSW 0,0
21.05.2019 10:00:00 18,1 12,3 6 3 14 8 W 0,0
21.05.2019 09:00:00 16,1 12,2 6 4 11 6 WSW 0,0
21.05.2019 08:00:00 15,1 11,3 4 2 11 6 WNW -
21.05.2019 07:00:00 15,4 11,6 6 3 15 8 WNW 0,0
21.05.2019 06:00:00 15,7 11,7 6 3 14 8 WNW 0,0
21.05.2019 05:00:00 15,8 12,3 10 5 18 10 WNW 0,0
21.05.2019 04:00:00 16,3 13,4 8 5 15 8 WNW 0,0
21.05.2019 03:00:00 16,2 14,2 7 4 14 8 W 0,0
21.05.2019 02:00:00 16,3 14,1 9 5 16 8 W -
21.05.2019 01:00:00 16,4 13,5 6 3 19 10 W 0,0
21.05.2019 00:00:00 16,7 12,6 13 7 27 15 W 0,0
20.05.2019 23:00:00 16,6 11,9 15 8 28 15 W 0,0
20.05.2019 22:00:00 16,7 11,8 16 9 31 17 W 0,0
20.05.2019 21:00:00 18,2 11,6 16 9 33 18 W 0,0
20.05.2019 20:00:00 20,5 5,3 16 9 35 19 W -
20.05.2019 19:00:00 22,5 5,0 16 9 32 17 W 0,0
20.05.2019 18:00:00 22,8 5,3 18 10 34 18 WSW 0,0
20.05.2019 17:00:00 23,3 7,4 16 9 30 16 W 0,0
20.05.2019 16:00:00 22,9 7,8 17 9 31 17 WSW 0,0
20.05.2019 15:00:00 22,9 10,0 16 9 30 16 W 0,0
20.05.2019 14:00:00 22,3 10,8 16 9 29 16 WSW -
20.05.2019 13:00:00 22,3 11,1 15 8 27 15 WSW 0,0
20.05.2019 12:00:00 21,3 11,3 11 6 23 13 SW 0,0
20.05.2019 11:00:00 20,5 11,4 5 3 13 7 WSW 0,0
20.05.2019 10:00:00 18,2 13,1 2 1 12 6 NW 0,0
20.05.2019 09:00:00 16,0 13,3 6 3 18 10 W 0,0
20.05.2019 08:00:00 15,2 13,1 12 7 21 11 W -
20.05.2019 07:00:00 15,0 13,6 7 4 17 9 W 0,0
20.05.2019 06:00:00 15,5 14,5 11 6 19 10 W 0,0
20.05.2019 05:00:00 15,7 14,7 11 6 21 11 WSW 0,0
20.05.2019 04:00:00 15,9 14,9 10 5 19 10 WSW 0,0
20.05.2019 03:00:00 15,7 14,7 11 6 18 10 SW 0,0
20.05.2019 02:00:00 16,0 15,1 10 5 18 10 SW -

tt = temperature
td = dewpoint
ff = wind speed
fx = gusts
dd = wind direction
rr = precipitation

Next stations